createdAt,value
2022-08-28T00:16:26.591Z,17.10
2022-08-28T00:20:35.027Z,13.60
2022-08-28T00:41:24.887Z,11.00
2022-08-28T00:45:39.893Z,12.60
2022-08-28T01:02:11.130Z,10.30
2022-08-28T01:10:56.431Z,12.90
2022-08-28T01:15:04.796Z,10.40
2022-08-28T01:40:17.840Z,11.00
2022-08-28T01:44:29.314Z,10.90
2022-08-28T01:48:37.700Z,13.50
2022-08-28T02:08:44.765Z,13.90
2022-08-28T02:12:54.150Z,9.60
2022-08-28T02:29:25.612Z,11.80
2022-08-28T02:33:23.891Z,10.60
2022-08-28T02:53:57.438Z,9.50
2022-08-28T02:58:05.848Z,11.30
2022-08-28T03:14:37.649Z,12.00
2022-08-28T03:18:46.076Z,11.50
2022-08-28T03:22:52.943Z,14.40
2022-08-28T03:26:39.924Z,14.40
2022-08-28T03:30:48.473Z,12.70
2022-08-28T03:34:58.467Z,9.40
2022-08-28T03:51:18.904Z,10.00
2022-08-28T03:55:30.900Z,11.10
2022-08-28T03:59:40.556Z,12.20
2022-08-28T04:16:11.162Z,12.90
2022-08-28T04:20:19.883Z,11.10
2022-08-28T04:24:27.971Z,11.70
2022-08-28T04:44:57.384Z,11.70
2022-08-28T04:49:05.979Z,11.70
2022-08-28T04:53:14.286Z,14.00
2022-08-28T05:13:39.290Z,15.50
2022-08-28T05:17:47.651Z,16.20
2022-08-28T05:41:49.512Z,18.70
2022-08-28T05:45:59.041Z,16.10
2022-08-28T06:02:18.921Z,15.70
2022-08-28T06:06:04.063Z,16.90
2022-08-28T06:10:13.651Z,14.20
2022-08-28T06:34:16.496Z,10.40
2022-08-28T06:38:24.747Z,13.30
2022-08-28T07:01:33.793Z,11.80
2022-08-28T07:05:25.584Z,10.40
2022-08-28T07:08:16.152Z,10.10
2022-08-28T07:12:15.002Z,9.30
2022-08-28T07:15:26.702Z,10.70
2022-08-28T07:35:18.322Z,9.80
2022-08-28T07:38:37.835Z,11.40
2022-08-28T07:42:35.737Z,10.90
2022-08-28T07:46:45.180Z,12.60
2022-08-28T07:49:35.424Z,9.00
2022-08-28T07:52:03.955Z,10.30
2022-08-28T07:54:31.656Z,12.80
2022-08-28T07:56:59.233Z,11.50
2022-08-28T07:59:26.587Z,11.20
2022-08-28T08:01:53.697Z,11.70
2022-08-28T08:04:24.009Z,12.60
2022-08-28T08:06:57.902Z,10.70
2022-08-28T08:09:27.230Z,11.60
2022-08-28T08:11:57.667Z,10.40
2022-08-28T08:14:25.316Z,10.60
2022-08-28T08:16:53.750Z,11.70
2022-08-28T08:19:21.685Z,9.70
2022-08-28T08:21:53.203Z,11.10
2022-08-28T08:24:26.846Z,9.40
2022-08-28T08:26:59.823Z,12.70
2022-08-28T08:29:32.262Z,10.20
2022-08-28T08:32:06.092Z,11.40
2022-08-28T08:34:38.910Z,10.20
2022-08-28T08:37:06.743Z,10.70
2022-08-28T08:39:37.254Z,10.50
2022-08-28T08:43:24.968Z,11.40
2022-08-28T08:47:34.235Z,11.10
2022-08-28T08:51:28.796Z,11.40
2022-08-28T08:55:37.237Z,10.90
2022-08-28T08:59:35.527Z,10.20
2022-08-28T09:03:04.522Z,9.60
2022-08-28T09:14:18.750Z,11.70
2022-08-28T09:17:50.372Z,15.20
2022-08-28T09:22:04.668Z,13.70
2022-08-28T09:26:01.795Z,13.80
2022-08-28T09:30:16.840Z,14.00
2022-08-28T10:18:43.700Z,16.30
2022-08-28T10:21:30.414Z,16.20
2022-08-28T10:24:05.418Z,16.00
2022-08-28T10:27:03.628Z,15.20
2022-08-28T10:29:49.821Z,16.30
2022-08-28T10:33:01.624Z,16.30
2022-08-28T10:35:50.196Z,14.60
2022-08-28T10:38:28.789Z,13.60
2022-08-28T10:41:09.355Z,14.30
2022-08-28T10:43:51.400Z,14.90
2022-08-28T10:46:39.009Z,14.20
2022-08-28T10:49:17.910Z,13.10
2022-08-28T10:51:50.180Z,12.20
2022-08-28T10:54:50.206Z,12.00
2022-08-28T10:57:40.269Z,12.60
2022-08-28T11:00:17.270Z,12.00
2022-08-28T11:02:53.281Z,14.20
2022-08-28T11:05:24.191Z,12.20
2022-08-28T11:08:05.313Z,13.60
2022-08-28T11:10:32.290Z,14.00
2022-08-28T11:13:00.786Z,12.70
2022-08-28T11:15:34.245Z,12.80
2022-08-28T11:18:15.951Z,13.30
2022-08-28T11:21:26.498Z,15.90
2022-08-28T11:24:28.597Z,13.10
2022-08-28T11:27:33.432Z,14.80
2022-08-28T11:30:32.936Z,14.20
2022-08-28T11:33:04.703Z,16.50
2022-08-28T11:35:49.567Z,16.70
2022-08-28T11:38:41.417Z,17.60
2022-08-28T11:41:22.677Z,14.40
2022-08-28T11:44:12.615Z,18.70
2022-08-28T11:46:52.914Z,17.50
2022-08-28T11:49:31.863Z,17.40
2022-08-28T11:52:23.195Z,17.00
2022-08-28T11:55:45.198Z,16.90
2022-08-28T11:58:17.162Z,16.30
2022-08-28T12:01:10.895Z,14.90
2022-08-28T12:03:45.545Z,16.90
2022-08-28T12:06:50.706Z,15.90
2022-08-28T12:09:48.507Z,15.90
2022-08-28T12:12:21.690Z,15.10
2022-08-28T12:14:48.840Z,15.80
2022-08-28T12:17:39.176Z,18.30
2022-08-28T12:20:24.090Z,14.00
2022-08-28T12:22:58.984Z,14.90
2022-08-28T12:25:34.475Z,17.00
2022-08-28T12:28:47.681Z,15.10
2022-08-28T12:32:13.349Z,14.40
2022-08-28T12:34:49.982Z,16.50
2022-08-28T12:37:39.643Z,17.60
2022-08-28T12:40:29.017Z,16.00
2022-08-28T12:43:05.291Z,17.80
2022-08-28T12:45:51.953Z,13.50
2022-08-28T12:48:33.078Z,16.00
2022-08-28T12:51:15.774Z,17.30
2022-08-28T12:53:58.713Z,16.20
2022-08-28T12:56:34.169Z,14.40
2022-08-28T12:59:59.620Z,13.60
2022-08-28T13:03:33.594Z,11.30
2022-08-28T13:06:09.985Z,8.00
2022-08-28T13:09:35.990Z,4.70
2022-08-28T13:12:56.063Z,6.40
2022-08-28T13:16:34.157Z,6.50
2022-08-28T13:20:34.532Z,5.80
2022-08-28T13:24:34.012Z,5.50
2022-08-28T13:28:24.915Z,8.10
2022-08-28T13:58:57.847Z,9.90
2022-08-28T14:02:16.842Z,9.40
2022-08-28T14:06:05.277Z,7.80
2022-08-28T14:09:27.548Z,4.40
2022-08-28T14:12:09.214Z,4.60
2022-08-28T14:15:58.937Z,7.40
2022-08-28T14:19:06.023Z,6.90
2022-08-28T14:22:09.167Z,6.80
2022-08-28T14:25:04.143Z,7.80
2022-08-28T14:28:25.314Z,8.30
2022-08-28T14:31:14.484Z,10.50
2022-08-28T14:33:45.062Z,9.00
2022-08-28T14:36:22.504Z,9.10
2022-08-28T14:38:54.878Z,9.40
2022-08-28T14:41:46.196Z,11.80
2022-08-28T14:44:23.211Z,10.90
2022-08-28T14:47:02.437Z,10.10
2022-08-28T14:49:32.988Z,6.90
2022-08-28T14:52:14.834Z,11.70
2022-08-28T14:54:51.712Z,13.50
2022-08-28T14:57:48.939Z,10.30
2022-08-28T15:00:53.337Z,10.50
2022-08-28T15:03:23.854Z,16.00
2022-08-28T15:06:09.905Z,20.20
2022-08-28T15:08:42.341Z,16.40
2022-08-28T15:11:18.749Z,9.80
2022-08-28T15:13:59.880Z,7.10
2022-08-28T15:16:39.521Z,10.00
2022-08-28T15:19:30.414Z,7.90
2022-08-28T15:22:06.354Z,10.30
2022-08-28T15:24:38.531Z,9.90
2022-08-28T15:27:35.151Z,9.40
2022-08-28T15:30:14.283Z,11.10
2022-08-28T15:33:05.599Z,11.10
2022-08-28T15:36:36.751Z,7.10
2022-08-28T15:39:24.994Z,8.00
2022-08-28T15:42:42.757Z,7.90
2022-08-28T15:45:54.258Z,7.40
2022-08-28T15:49:44.575Z,11.70
2022-08-28T15:53:29.610Z,8.40
2022-08-28T15:57:18.987Z,32.50
2022-08-28T16:00:36.852Z,6.70
2022-08-28T16:23:28.988Z,32.60
2022-08-28T16:27:38.336Z,10.70
2022-08-28T16:31:49.754Z,8.70
2022-08-28T16:57:18.682Z,12.10
2022-08-28T17:01:30.315Z,12.20
2022-08-28T17:16:33.217Z,11.00
2022-08-28T17:20:08.129Z,12.90
2022-08-28T17:23:35.571Z,10.90
2022-08-28T17:27:25.663Z,13.00
2022-08-28T17:30:57.484Z,12.50
2022-08-28T17:34:45.499Z,13.60
2022-08-28T17:37:32.090Z,20.60
2022-08-28T17:40:12.090Z,13.90
2022-08-28T17:43:34.616Z,10.90
2022-08-28T17:46:11.797Z,11.30
2022-08-28T18:10:43.173Z,14.80
2022-08-28T18:13:50.225Z,17.60
2022-08-28T18:58:15.484Z,21.10
2022-08-28T19:01:26.008Z,16.50
2022-08-28T19:04:01.788Z,17.40
2022-08-28T19:06:52.257Z,19.10
2022-08-28T19:09:32.144Z,22.40
2022-08-28T19:12:20.173Z,17.60
2022-08-28T19:14:59.873Z,21.30
2022-08-28T19:17:36.018Z,19.30
2022-08-28T19:20:14.584Z,20.40
2022-08-28T19:22:54.312Z,18.50
2022-08-28T19:25:43.811Z,21.30
2022-08-28T19:28:17.386Z,22.50
2022-08-28T19:30:56.362Z,26.80
2022-08-28T19:33:30.706Z,33.00
2022-08-28T19:36:32.631Z,36.00
2022-08-28T19:39:13.729Z,34.20
2022-08-28T19:42:04.682Z,36.00
2022-08-28T19:44:31.729Z,42.30
2022-08-28T19:47:35.808Z,42.20
2022-08-28T19:50:20.628Z,40.60
2022-08-28T19:52:47.823Z,39.90
2022-08-28T19:55:22.868Z,43.60
2022-08-28T19:58:35.509Z,42.30
2022-08-28T20:01:06.389Z,39.30
2022-08-28T20:03:48.113Z,35.70
2022-08-28T20:06:34.872Z,40.20
2022-08-28T20:09:25.627Z,48.20
2022-08-28T20:12:13.186Z,45.90
2022-08-28T20:15:14.302Z,42.10
2022-08-28T20:18:03.579Z,41.40
2022-08-28T20:21:28.811Z,44.50
2022-08-28T20:25:38.765Z,44.80
2022-08-28T20:29:26.914Z,42.70
2022-08-28T20:32:41.270Z,40.70
2022-08-28T20:35:53.886Z,40.00
2022-08-28T20:38:58.438Z,43.70
2022-08-28T20:42:03.757Z,37.40
2022-08-28T20:52:25.120Z,37.20
2022-08-28T21:27:09.522Z,24.90
2022-08-28T21:30:18.318Z,26.50
2022-08-28T21:33:11.013Z,25.50
2022-08-28T21:36:38.266Z,25.30
2022-08-28T21:39:40.498Z,28.70
2022-08-28T21:43:05.504Z,28.10
2022-08-28T21:45:50.280Z,27.30
2022-08-28T21:49:32.604Z,31.80
2022-08-28T21:53:06.088Z,32.90
2022-08-28T21:56:58.695Z,22.80
2022-08-28T22:00:33.884Z,22.50
2022-08-28T22:03:54.104Z,21.70
2022-08-28T22:07:33.621Z,26.10
2022-08-28T22:11:00.885Z,28.90
2022-08-28T22:14:35.616Z,28.70
2022-08-28T22:17:50.484Z,24.80
2022-08-28T22:21:06.477Z,24.50
2022-08-28T22:24:38.139Z,27.20
2022-08-28T22:28:06.528Z,28.20
2022-08-28T22:31:41.404Z,31.00
2022-08-28T22:34:42.047Z,30.60
2022-08-28T22:37:40.616Z,34.30
2022-08-28T22:40:45.446Z,33.30
2022-08-28T22:44:21.571Z,28.00
2022-08-28T22:47:11.831Z,29.60
2022-08-28T22:50:42.018Z,32.50
2022-08-28T22:54:39.048Z,28.90
2022-08-28T22:58:12.661Z,33.60
2022-08-28T23:05:18.462Z,29.60
2022-08-28T23:08:58.138Z,27.20
2022-08-28T23:47:00.971Z,13.30
2022-08-28T23:50:57.031Z,14.80
2022-08-28T23:59:21.290Z,15.10
